Terminal Aerodrome Forecast
Issued by NWS

Home | Current Version | Previous Version | Text Only | Print | Product List | Glossary On
Versions: 1 2 3 4 5 6 7 8 9 10 11 12
000
FTUS45 KPSR 081721
TAFIPL
TAF
KIPL 081721Z 0818/0918 28004KT P6SM FEW250
     FM082000 36010KT P6SM SKC
     FM090300 27006KT P6SM SKC=

USA.gov is the U.S. government's official web portal to all federal, state and local government web resources and services.